Time;durP1;ratioP1;P1;durP2;ratioP2;P2;SDS_P1;SDS_P2;PMS_P1;PMS_P2;Temp;Humidity;BMP_temperature;BMP_pressure;BME280_temperature;BME280_humidity;BME280_pressure;Samples;Min_cycle;Max_cycle;Signal;HPM_P1;HPM_P2
2022/03/16 00:00:11;;;;;;;;;;;21.30;30.40;;;;;;484721;246;1050;-39
2022/03/16 00:02:13;;;;;;;;;;;21.30;30.50;;;;;;484305;246;1075;-39
2022/03/16 00:04:14;;;;;;;;;;;21.30;30.50;;;;;;484311;246;999;-39
2022/03/16 00:06:15;;;;;;;;;;;21.30;30.50;;;;;;484635;246;1218;-39
2022/03/16 00:08:17;;;;;;;;;;;21.20;30.50;;;;;;484345;246;1350;-39
2022/03/16 00:10:18;;;;;;;;;;;21.20;30.50;;;;;;484152;246;2125;-39
2022/03/16 00:12:19;;;;;;;;;;;21.30;30.60;;;;;;484499;246;1043;-39
2022/03/16 00:14:20;;;;;;;;;;;21.30;30.50;;;;;;484269;246;1261;-39
2022/03/16 00:16:22;;;;;;;;;;;21.30;30.50;;;;;;484255;246;994;-39
2022/03/16 00:18:23;;;;;;;;;;;21.30;30.50;;;;;;484355;246;994;-39
2022/03/16 00:20:24;;;;;;;;;;;21.30;30.50;;;;;;484641;246;1082;-39
2022/03/16 00:22:26;;;;;;;;;;;21.30;30.50;;;;;;484451;246;1067;-39
2022/03/16 00:24:27;;;;;;;;;;;21.30;30.50;;;;;;484735;246;1125;-39
2022/03/16 00:26:28;;;;;;;;;;;21.30;30.50;;;;;;484383;246;1034;-39
2022/03/16 00:28:30;;;;;;;;;;;21.30;30.50;;;;;;484592;246;1179;-39
2022/03/16 00:30:31;;;;;;;;;;;21.30;30.60;;;;;;484228;246;2132;-39
2022/03/16 00:32:32;;;;;;;;;;;21.30;30.60;;;;;;484405;246;971;-39
2022/03/16 00:34:34;;;;;;;;;;;21.30;30.60;;;;;;484273;246;1031;-39
2022/03/16 00:36:35;;;;;;;;;;;21.30;30.50;;;;;;484649;246;1216;-39
2022/03/16 00:38:36;;;;;;;;;;;21.30;30.60;;;;;;484298;246;1068;-39
2022/03/16 00:40:38;;;;;;;;;;;21.20;30.60;;;;;;484248;246;1155;-39
2022/03/16 00:42:39;;;;;;;;;;;21.20;30.70;;;;;;484681;246;1057;-39
2022/03/16 00:44:40;;;;;;;;;;;21.30;30.70;;;;;;484381;246;1183;-39
2022/03/16 00:46:42;;;;;;;;;;;21.20;30.70;;;;;;484321;246;1055;-39
2022/03/16 00:48:43;;;;;;;;;;;21.30;30.60;;;;;;484280;246;1208;-39
2022/03/16 00:50:44;;;;;;;;;;;21.20;30.60;;;;;;484683;246;2210;-39
2022/03/16 00:52:45;;;;;;;;;;;21.30;30.60;;;;;;484175;246;1367;-39
2022/03/16 00:54:47;;;;;;;;;;;21.30;30.60;;;;;;484748;246;1175;-39
2022/03/16 00:56:48;;;;;;;;;;;21.30;30.60;;;;;;484379;246;1183;-39
2022/03/16 00:58:49;;;;;;;;;;;21.30;30.60;;;;;;484652;246;1269;-39
2022/03/16 01:00:51;;;;;;;;;;;21.20;30.70;;;;;;484474;246;1188;-39
2022/03/16 01:02:53;;;;;;;;;;;21.30;30.70;;;;;;484159;246;1307;-39
2022/03/16 01:04:54;;;;;;;;;;;21.30;30.70;;;;;;484693;246;2374;-39
2022/03/16 01:06:55;;;;;;;;;;;21.30;30.70;;;;;;484265;246;1226;-39
2022/03/16 01:08:56;;;;;;;;;;;21.30;30.70;;;;;;484263;246;1112;-39
2022/03/16 01:10:58;;;;;;;;;;;21.30;30.60;;;;;;484288;246;2195;-39
2022/03/16 01:12:59;;;;;;;;;;;21.30;30.70;;;;;;484398;246;1205;-39
2022/03/16 01:15:00;;;;;;;;;;;21.30;30.70;;;;;;484430;246;1253;-39
2022/03/16 01:17:02;;;;;;;;;;;21.30;30.70;;;;;;484649;246;1207;-39
2022/03/16 01:19:03;;;;;;;;;;;21.30;30.70;;;;;;484665;246;1062;-39
2022/03/16 01:21:04;;;;;;;;;;;21.20;30.70;;;;;;484607;246;1068;-39
2022/03/16 01:23:05;;;;;;;;;;;21.20;30.70;;;;;;484459;246;1072;-39
2022/03/16 01:25:07;;;;;;;;;;;21.20;30.70;;;;;;484264;246;1032;-39
2022/03/16 01:27:08;;;;;;;;;;;21.20;30.70;;;;;;484653;246;1098;-39
2022/03/16 01:29:10;;;;;;;;;;;21.30;30.70;;;;;;484397;246;1197;-39
2022/03/16 01:31:11;;;;;;;;;;;21.20;30.70;;;;;;484613;246;2128;-39
2022/03/16 01:33:12;;;;;;;;;;;21.20;30.70;;;;;;484701;246;1075;-39
2022/03/16 01:35:14;;;;;;;;;;;21.20;30.70;;;;;;484709;246;1085;-39
2022/03/16 01:37:15;;;;;;;;;;;21.20;30.70;;;;;;484634;245;1147;-39
2022/03/16 01:39:16;;;;;;;;;;;21.20;30.70;;;;;;484283;246;1032;-39
2022/03/16 01:41:18;;;;;;;;;;;21.20;30.70;;;;;;484236;246;1110;-39
2022/03/16 01:43:19;;;;;;;;;;;21.20;30.70;;;;;;484704;246;1073;-39
2022/03/16 01:45:20;;;;;;;;;;;21.30;30.80;;;;;;484427;246;1183;-39
2022/03/16 01:47:21;;;;;;;;;;;21.30;30.70;;;;;;484463;246;1084;-39
2022/03/16 01:49:23;;;;;;;;;;;21.30;30.80;;;;;;484241;246;1090;-39
2022/03/16 01:51:24;;;;;;;;;;;21.20;30.70;;;;;;484289;246;2192;-39
2022/03/16 01:53:26;;;;;;;;;;;21.30;30.70;;;;;;484200;246;1057;-39
2022/03/16 01:55:27;;;;;;;;;;;21.20;30.70;;;;;;484655;246;1463;-39
2022/03/16 01:57:28;;;;;;;;;;;21.20;30.80;;;;;;484691;246;1081;-39
2022/03/16 01:59:29;;;;;;;;;;;21.20;30.70;;;;;;484620;246;1309;-39
2022/03/16 02:01:31;;;;;;;;;;;21.20;30.70;;;;;;484416;246;1421;-39
2022/03/16 02:03:32;;;;;;;;;;;21.30;30.70;;;;;;484711;246;1074;-39
2022/03/16 02:05:33;;;;;;;;;;;21.20;30.70;;;;;;484579;246;1110;-39
2022/03/16 02:07:37;;;;;;;;;;;21.20;30.70;;;;;;484496;246;1052;-39
2022/03/16 02:09:36;;;;;;;;;;;21.30;30.70;;;;;;484065;246;2024;-39
2022/03/16 02:11:37;;;;;;;;;;;21.20;30.80;;;;;;484457;246;2192;-39
2022/03/16 02:13:39;;;;;;;;;;;21.20;30.80;;;;;;484263;246;1072;-39
2022/03/16 02:15:40;;;;;;;;;;;21.20;30.80;;;;;;484247;246;2087;-39
2022/03/16 02:17:41;;;;;;;;;;;21.30;30.70;;;;;;484251;246;1253;-39
2022/03/16 02:19:42;;;;;;;;;;;21.30;30.80;;;;;;484193;246;991;-39
2022/03/16 02:21:44;;;;;;;;;;;21.30;30.80;;;;;;484157;246;1061;-39
2022/03/16 02:23:45;;;;;;;;;;;21.20;30.80;;;;;;484204;246;1043;-39
2022/03/16 02:25:47;;;;;;;;;;;21.20;30.90;;;;;;484392;246;1288;-39
2022/03/16 02:27:48;;;;;;;;;;;21.20;30.80;;;;;;484224;246;1224;-39
2022/03/16 02:29:49;;;;;;;;;;;21.20;30.80;;;;;;484242;246;1320;-39
2022/03/16 02:31:50;;;;;;;;;;;21.30;30.80;;;;;;484328;241;2243;-39
2022/03/16 02:33:52;;;;;;;;;;;21.30;30.80;;;;;;484239;246;1086;-39
2022/03/16 02:35:54;;;;;;;;;;;21.20;30.80;;;;;;484652;246;1215;-39
2022/03/16 02:37:54;;;;;;;;;;;21.20;30.80;;;;;;484608;246;1948;-39
2022/03/16 02:39:56;;;;;;;;;;;21.20;30.90;;;;;;484614;246;1124;-39
2022/03/16 02:41:57;;;;;;;;;;;21.20;30.90;;;;;;484232;246;1351;-39
2022/03/16 02:43:58;;;;;;;;;;;21.20;30.80;;;;;;484670;246;1100;-39
2022/03/16 02:45:59;;;;;;;;;;;21.30;30.90;;;;;;484317;246;1176;-39
2022/03/16 02:48:01;;;;;;;;;;;21.20;30.80;;;;;;484682;246;1061;-39
2022/03/16 02:50:02;;;;;;;;;;;21.20;30.90;;;;;;484517;246;1090;-39
2022/03/16 02:52:04;;;;;;;;;;;21.30;30.90;;;;;;484590;246;2196;-39
2022/03/16 02:54:05;;;;;;;;;;;21.20;30.90;;;;;;484348;246;1065;-39
2022/03/16 02:56:07;;;;;;;;;;;21.20;30.90;;;;;;484647;246;1875;-39
2022/03/16 02:58:08;;;;;;;;;;;21.20;30.90;;;;;;484333;246;1861;-39
2022/03/16 03:00:09;;;;;;;;;;;21.20;30.90;;;;;;484691;246;1165;-39
2022/03/16 03:02:11;;;;;;;;;;;21.20;30.90;;;;;;484255;246;1232;-39
2022/03/16 03:04:12;;;;;;;;;;;21.30;30.90;;;;;;484750;246;1059;-39
2022/03/16 03:06:14;;;;;;;;;;;21.30;30.90;;;;;;484343;246;1116;-39
2022/03/16 03:08:16;;;;;;;;;;;21.20;30.90;;;;;;484456;246;1054;-39
2022/03/16 03:10:17;;;;;;;;;;;21.20;30.90;;;;;;484709;246;1188;-39
2022/03/16 03:12:18;;;;;;;;;;;21.30;31.00;;;;;;484685;246;2110;-39
2022/03/16 03:14:20;;;;;;;;;;;21.30;31.00;;;;;;484747;246;1032;-39
2022/03/16 03:16:22;;;;;;;;;;;21.30;30.90;;;;;;484443;246;1254;-39
2022/03/16 03:18:22;;;;;;;;;;;21.20;30.90;;;;;;484566;246;1743;-39
2022/03/16 03:20:24;;;;;;;;;;;21.20;30.90;;;;;;484309;246;1136;-39
2022/03/16 03:22:25;;;;;;;;;;;21.30;30.90;;;;;;484213;246;1269;-39
2022/03/16 03:24:26;;;;;;;;;;;21.20;30.90;;;;;;484727;246;1140;-39
2022/03/16 03:26:28;;;;;;;;;;;21.20;31.00;;;;;;484278;246;1347;-39
2022/03/16 03:28:29;;;;;;;;;;;21.20;31.10;;;;;;484738;246;1240;-39
2022/03/16 03:30:30;;;;;;;;;;;21.20;31.10;;;;;;484642;246;1209;-39
2022/03/16 03:32:31;;;;;;;;;;;21.20;31.00;;;;;;484549;246;2170;-39
2022/03/16 03:34:33;;;;;;;;;;;21.20;31.00;;;;;;484254;246;1087;-39
2022/03/16 03:36:34;;;;;;;;;;;21.20;31.10;;;;;;484669;246;1357;-39
2022/03/16 03:38:35;;;;;;;;;;;21.20;31.10;;;;;;484618;246;1240;-39
2022/03/16 03:40:37;;;;;;;;;;;21.20;31.00;;;;;;484269;246;1110;-39
2022/03/16 03:42:38;;;;;;;;;;;21.20;31.10;;;;;;484227;246;1209;-39
2022/03/16 03:44:39;;;;;;;;;;;21.20;31.10;;;;;;484687;246;1081;-39
2022/03/16 03:46:41;;;;;;;;;;;21.20;31.00;;;;;;484157;246;1777;-39
2022/03/16 03:48:42;;;;;;;;;;;21.30;31.00;;;;;;484213;246;1036;-39
2022/03/16 03:50:43;;;;;;;;;;;21.20;31.00;;;;;;484632;246;2112;-39
2022/03/16 03:52:45;;;;;;;;;;;21.20;31.00;;;;;;484402;246;1133;-39
2022/03/16 03:54:46;;;;;;;;;;;21.20;31.00;;;;;;484687;246;1221;-39
2022/03/16 03:56:47;;;;;;;;;;;21.20;31.10;;;;;;484284;246;1236;-39
2022/03/16 03:58:49;;;;;;;;;;;21.30;31.10;;;;;;484273;246;1068;-39
2022/03/16 04:00:50;;;;;;;;;;;21.20;31.00;;;;;;484403;246;1243;-39
2022/03/16 04:02:51;;;;;;;;;;;21.20;31.00;;;;;;484715;246;1065;-39
2022/03/16 04:04:53;;;;;;;;;;;21.20;31.10;;;;;;484346;246;1105;-39
2022/03/16 04:06:54;;;;;;;;;;;21.20;31.10;;;;;;484332;246;1155;-39
2022/03/16 04:08:55;;;;;;;;;;;21.20;31.00;;;;;;484663;246;1102;-39
2022/03/16 04:10:56;;;;;;;;;;;21.20;31.10;;;;;;484632;246;2120;-39
2022/03/16 04:12:58;;;;;;;;;;;21.20;31.10;;;;;;484673;246;1143;-39
2022/03/16 04:14:59;;;;;;;;;;;21.20;31.10;;;;;;484677;246;1112;-39
2022/03/16 04:17:00;;;;;;;;;;;21.20;31.20;;;;;;484346;246;1277;-39
2022/03/16 04:19:02;;;;;;;;;;;21.20;31.10;;;;;;484284;246;1052;-39
2022/03/16 04:21:03;;;;;;;;;;;21.30;31.10;;;;;;484670;246;1078;-39
2022/03/16 04:23:04;;;;;;;;;;;21.30;31.00;;;;;;484685;246;1074;-39
2022/03/16 04:25:06;;;;;;;;;;;21.30;31.00;;;;;;484234;246;1069;-39
2022/03/16 04:27:07;;;;;;;;;;;21.30;31.10;;;;;;484343;246;1047;-39
2022/03/16 04:29:08;;;;;;;;;;;21.20;31.00;;;;;;484524;246;1057;-39
2022/03/16 04:31:10;;;;;;;;;;;21.20;31.00;;;;;;484614;246;2152;-39
2022/03/16 04:33:11;;;;;;;;;;;21.20;31.00;;;;;;484286;246;1126;-39
2022/03/16 04:35:12;;;;;;;;;;;21.30;31.00;;;;;;484703;246;1013;-39
2022/03/16 04:37:14;;;;;;;;;;;21.30;31.00;;;;;;484138;246;1083;-39
2022/03/16 04:39:16;;;;;;;;;;;21.20;31.10;;;;;;484678;246;1054;-39
2022/03/16 04:41:16;;;;;;;;;;;21.20;31.10;;;;;;484117;246;2013;-39
2022/03/16 04:43:18;;;;;;;;;;;21.20;31.20;;;;;;484244;246;1053;-39
2022/03/16 04:45:19;;;;;;;;;;;21.20;31.10;;;;;;484673;246;1150;-39
2022/03/16 04:47:20;;;;;;;;;;;21.20;31.10;;;;;;484399;246;1172;-39
2022/03/16 04:49:21;;;;;;;;;;;21.30;31.10;;;;;;484257;246;1136;-39
2022/03/16 04:51:23;;;;;;;;;;;21.20;31.10;;;;;;484183;246;2184;-39
2022/03/16 04:53:24;;;;;;;;;;;21.30;31.10;;;;;;484657;246;1080;-39
2022/03/16 04:55:25;;;;;;;;;;;21.20;31.10;;;;;;484192;246;1051;-39
2022/03/16 04:57:27;;;;;;;;;;;21.30;31.10;;;;;;484209;246;1042;-39
2022/03/16 04:59:28;;;;;;;;;;;21.20;31.00;;;;;;484222;246;1039;-39
2022/03/16 05:01:29;;;;;;;;;;;21.20;31.10;;;;;;484219;246;1249;-39
2022/03/16 05:03:31;;;;;;;;;;;21.30;31.10;;;;;;484515;246;1130;-39
2022/03/16 05:05:32;;;;;;;;;;;21.30;31.10;;;;;;484299;246;1067;-39
2022/03/16 05:07:33;;;;;;;;;;;21.30;31.10;;;;;;484118;246;1158;-39
2022/03/16 05:09:35;;;;;;;;;;;21.30;31.10;;;;;;484357;246;1068;-39
2022/03/16 05:11:40;;;;;;;;;;;21.20;31.10;;;;;;484393;246;2109;-39
2022/03/16 05:13:37;;;;;;;;;;;21.20;31.10;;;;;;483919;246;1370;-39
2022/03/16 05:15:39;;;;;;;;;;;21.20;31.20;;;;;;484629;246;1062;-39
2022/03/16 05:17:40;;;;;;;;;;;21.20;31.20;;;;;;484311;246;1193;-39
2022/03/16 05:19:42;;;;;;;;;;;21.20;31.20;;;;;;484491;246;1094;-39
2022/03/16 05:21:43;;;;;;;;;;;21.20;31.10;;;;;;484224;246;1251;-39
2022/03/16 05:23:44;;;;;;;;;;;21.30;31.10;;;;;;484172;246;1110;-39
2022/03/16 05:25:46;;;;;;;;;;;21.20;31.10;;;;;;484380;246;975;-39
2022/03/16 05:27:47;;;;;;;;;;;21.20;31.20;;;;;;484301;246;1211;-39
2022/03/16 05:29:49;;;;;;;;;;;21.20;31.10;;;;;;484246;246;1089;-39
2022/03/16 05:31:50;;;;;;;;;;;21.20;31.20;;;;;;484242;246;2136;-39
2022/03/16 05:33:51;;;;;;;;;;;21.30;31.20;;;;;;484448;246;1093;-39
2022/03/16 05:35:52;;;;;;;;;;;21.20;31.10;;;;;;484551;246;1104;-39
2022/03/16 05:37:54;;;;;;;;;;;21.30;31.20;;;;;;484206;246;1059;-39
2022/03/16 05:39:55;;;;;;;;;;;21.20;31.20;;;;;;484354;246;1052;-39
2022/03/16 05:41:56;;;;;;;;;;;21.30;31.20;;;;;;483934;246;1147;-39
2022/03/16 05:43:58;;;;;;;;;;;21.20;31.20;;;;;;484193;246;1130;-39
2022/03/16 05:46:01;;;;;;;;;;;21.20;31.20;;;;;;484063;246;1099;-39
2022/03/16 05:48:00;;;;;;;;;;;21.20;31.20;;;;;;484130;246;2179;-39
2022/03/16 05:50:02;;;;;;;;;;;21.20;31.20;;;;;;484255;246;1219;-39
2022/03/16 05:52:03;;;;;;;;;;;21.20;31.20;;;;;;483903;246;2113;-39
2022/03/16 05:54:04;;;;;;;;;;;21.30;31.20;;;;;;484097;246;1214;-39
2022/03/16 05:56:06;;;;;;;;;;;21.30;31.10;;;;;;484276;246;1050;-39
2022/03/16 05:58:07;;;;;;;;;;;21.30;31.10;;;;;;484028;246;1063;-39
2022/03/16 06:00:08;;;;;;;;;;;21.30;31.20;;;;;;484100;246;1055;-39
2022/03/16 06:02:10;;;;;;;;;;;21.20;31.20;;;;;;484049;246;1138;-39
2022/03/16 06:04:11;;;;;;;;;;;21.20;31.10;;;;;;484069;246;1065;-39
2022/03/16 06:06:12;;;;;;;;;;;21.30;31.10;;;;;;484247;246;1278;-39
2022/03/16 06:08:13;;;;;;;;;;;21.30;31.20;;;;;;483976;246;1308;-39
2022/03/16 06:10:17;;;;;;;;;;;21.20;31.20;;;;;;484075;246;1045;-39
2022/03/16 06:12:16;;;;;;;;;;;21.20;31.20;;;;;;484009;246;2192;-39
2022/03/16 06:14:18;;;;;;;;;;;21.30;31.20;;;;;;483942;246;1068;-39
2022/03/16 06:16:19;;;;;;;;;;;21.20;31.20;;;;;;484250;246;1043;-39
2022/03/16 06:18:20;;;;;;;;;;;21.20;31.20;;;;;;484072;246;1243;-39
2022/03/16 06:20:21;;;;;;;;;;;21.20;31.20;;;;;;484073;246;1053;-39
2022/03/16 06:22:23;;;;;;;;;;;21.20;31.20;;;;;;484067;246;1197;-39
2022/03/16 06:24:24;;;;;;;;;;;21.20;31.20;;;;;;484017;246;1066;-39
2022/03/16 06:26:25;;;;;;;;;;;21.20;31.30;;;;;;484058;246;1157;-39
2022/03/16 06:28:27;;;;;;;;;;;21.20;31.20;;;;;;483909;246;1043;-39
2022/03/16 06:30:28;;;;;;;;;;;21.30;31.30;;;;;;483924;246;1068;-39
2022/03/16 06:32:29;;;;;;;;;;;21.20;31.20;;;;;;483917;246;2196;-39
2022/03/16 06:34:31;;;;;;;;;;;21.20;31.10;;;;;;483956;246;1253;-39
2022/03/16 06:36:32;;;;;;;;;;;21.20;31.20;;;;;;483912;246;1466;-39
2022/03/16 06:38:34;;;;;;;;;;;21.20;31.20;;;;;;483869;246;1183;-39
2022/03/16 06:40:35;;;;;;;;;;;21.30;31.20;;;;;;484074;246;1379;-39
2022/03/16 06:42:36;;;;;;;;;;;21.30;31.20;;;;;;484127;246;1519;-39
2022/03/16 06:44:37;;;;;;;;;;;21.30;31.20;;;;;;484035;246;1027;-39
2022/03/16 06:46:38;;;;;;;;;;;21.20;31.20;;;;;;483914;246;1475;-39
2022/03/16 06:48:40;;;;;;;;;;;21.20;31.20;;;;;;483987;246;1215;-39
2022/03/16 06:50:41;;;;;;;;;;;21.20;31.20;;;;;;484221;246;1063;-39
2022/03/16 06:52:42;;;;;;;;;;;21.30;31.20;;;;;;483945;246;2192;-39
2022/03/16 06:54:44;;;;;;;;;;;21.30;31.20;;;;;;483973;246;1091;-39
2022/03/16 06:56:45;;;;;;;;;;;21.30;31.20;;;;;;483723;246;1085;-39
2022/03/16 06:58:46;;;;;;;;;;;21.20;31.30;;;;;;484105;246;1117;-39
2022/03/16 07:00:48;;;;;;;;;;;21.30;31.20;;;;;;483913;246;1384;-39
2022/03/16 07:02:49;;;;;;;;;;;21.30;31.20;;;;;;483930;246;1060;-39
2022/03/16 07:04:50;;;;;;;;;;;21.30;31.20;;;;;;483977;246;1139;-39
2022/03/16 07:06:52;;;;;;;;;;;21.20;31.20;;;;;;483955;246;1325;-39
2022/03/16 07:08:53;;;;;;;;;;;21.30;31.20;;;;;;483847;246;1086;-39
2022/03/16 07:10:54;;;;;;;;;;;21.20;31.20;;;;;;483951;246;1274;-39
2022/03/16 07:12:56;;;;;;;;;;;21.30;31.30;;;;;;483807;246;2180;-39
2022/03/16 07:14:58;;;;;;;;;;;21.30;31.20;;;;;;483828;246;1133;-39
2022/03/16 07:16:58;;;;;;;;;;;21.30;31.30;;;;;;484054;246;2260;-39
2022/03/16 07:19:00;;;;;;;;;;;21.30;31.20;;;;;;483806;246;1216;-39
2022/03/16 07:21:01;;;;;;;;;;;21.30;31.30;;;;;;484158;246;1068;-39
2022/03/16 07:23:03;;;;;;;;;;;21.30;31.30;;;;;;483919;246;1062;-39
2022/03/16 07:25:04;;;;;;;;;;;21.30;31.30;;;;;;484006;246;1050;-39
2022/03/16 07:27:06;;;;;;;;;;;21.30;31.30;;;;;;483910;246;1046;-39
2022/03/16 07:29:07;;;;;;;;;;;21.30;31.30;;;;;;483685;246;2074;-39
2022/03/16 07:31:08;;;;;;;;;;;21.20;31.30;;;;;;483812;246;1349;-39
2022/03/16 07:33:09;;;;;;;;;;;21.30;31.30;;;;;;483899;246;2124;-39
2022/03/16 07:35:11;;;;;;;;;;;21.20;31.30;;;;;;483804;246;1113;-39
2022/03/16 07:37:12;;;;;;;;;;;21.20;31.40;;;;;;483821;246;1090;-39
2022/03/16 07:39:13;;;;;;;;;;;21.20;31.40;;;;;;483778;246;1075;-39
2022/03/16 07:41:15;;;;;;;;;;;21.20;31.40;;;;;;483816;246;1354;-39
2022/03/16 07:43:17;;;;;;;;;;;21.30;31.50;;;;;;483505;246;1161;-39
2022/03/16 07:45:18;;;;;;;;;;;21.30;31.40;;;;;;483470;246;1126;-39
2022/03/16 07:47:19;;;;;;;;;;;21.30;31.40;;;;;;483402;246;1205;-39
2022/03/16 07:49:21;;;;;;;;;;;21.30;31.40;;;;;;483490;246;1176;-39
2022/03/16 07:51:22;;;;;;;;;;;21.30;31.40;;;;;;483651;246;1627;-39
2022/03/16 07:53:23;;;;;;;;;;;21.40;31.40;;;;;;483669;246;2176;-39
2022/03/16 07:55:25;;;;;;;;;;;21.30;31.40;;;;;;483615;246;1091;-39
2022/03/16 07:57:26;;;;;;;;;;;21.40;31.40;;;;;;483619;246;1313;-39
2022/03/16 07:59:27;;;;;;;;;;;21.40;31.30;;;;;;483531;246;1110;-39
2022/03/16 08:01:29;;;;;;;;;;;21.40;31.30;;;;;;483063;246;1373;-39
2022/03/16 08:03:30;;;;;;;;;;;21.40;31.30;;;;;;483196;246;1206;-39
2022/03/16 08:05:31;;;;;;;;;;;21.40;31.30;;;;;;483336;246;1319;-39
2022/03/16 08:07:32;;;;;;;;;;;21.40;31.30;;;;;;483328;246;1096;-39
2022/03/16 08:09:34;;;;;;;;;;;21.50;31.20;;;;;;483452;246;1103;-39
2022/03/16 08:11:35;;;;;;;;;;;21.50;31.30;;;;;;483687;246;1119;-39
2022/03/16 08:13:37;;;;;;;;;;;21.50;31.20;;;;;;483632;246;2195;-39
2022/03/16 08:15:38;;;;;;;;;;;21.50;31.20;;;;;;483535;246;1072;-39
2022/03/16 08:17:39;;;;;;;;;;;21.50;31.20;;;;;;483539;246;1235;-39
2022/03/16 08:19:41;;;;;;;;;;;21.50;31.20;;;;;;483706;246;1211;-39
2022/03/16 08:21:42;;;;;;;;;;;21.50;31.20;;;;;;483528;246;1206;-39
2022/03/16 08:23:43;;;;;;;;;;;21.50;31.10;;;;;;483683;246;1123;-39
2022/03/16 08:25:45;;;;;;;;;;;21.50;31.10;;;;;;483653;246;1242;-39
2022/03/16 08:27:48;;;;;;;;;;;21.50;31.20;;;;;;483468;246;1160;-39
2022/03/16 08:29:47;;;;;;;;;;;21.50;31.20;;;;;;483300;246;2240;-39
2022/03/16 08:31:49;;;;;;;;;;;21.50;31.10;;;;;;483375;246;1223;-39
2022/03/16 08:33:50;;;;;;;;;;;21.50;31.20;;;;;;483490;246;2129;-39
2022/03/16 08:35:52;;;;;;;;;;;21.50;31.20;;;;;;483340;246;1221;-39
2022/03/16 08:37:53;;;;;;;;;;;21.50;31.10;;;;;;483236;246;1176;-39
2022/03/16 08:39:54;;;;;;;;;;;21.60;31.10;;;;;;483370;246;1122;-39
2022/03/16 08:41:56;;;;;;;;;;;21.60;31.10;;;;;;483471;246;1145;-39
2022/03/16 08:43:57;;;;;;;;;;;21.60;31.10;;;;;;483528;246;1396;-39
2022/03/16 08:45:59;;;;;;;;;;;21.60;31.10;;;;;;483615;246;1378;-39
2022/03/16 08:48:01;;;;;;;;;;;21.60;31.20;;;;;;484264;246;902;-39
2022/03/16 08:50:01;;;;;;;;;;;21.60;31.20;;;;;;484070;246;1999;-39
2022/03/16 08:52:03;;;;;;;;;;;21.60;31.10;;;;;;483770;246;1198;-39
2022/03/16 08:54:04;;;;;;;;;;;21.60;31.10;;;;;;483379;246;2188;-39
2022/03/16 08:56:05;;;;;;;;;;;21.60;31.20;;;;;;483449;246;2254;-39
2022/03/16 08:58:06;;;;;;;;;;;21.60;31.20;;;;;;483637;246;1091;-39
2022/03/16 09:00:08;;;;;;;;;;;21.60;31.20;;;;;;483396;246;1117;-39
2022/03/16 09:02:09;;;;;;;;;;;21.60;31.10;;;;;;483635;246;1515;-39
2022/03/16 09:04:11;;;;;;;;;;;21.60;31.20;;;;;;483761;246;1096;-39
2022/03/16 09:06:12;;;;;;;;;;;21.60;31.20;;;;;;483600;246;1183;-39
2022/03/16 09:08:14;;;;;;;;;;;21.60;31.20;;;;;;483525;246;1278;-39
2022/03/16 09:10:15;;;;;;;;;;;21.60;31.20;;;;;;483449;246;1469;-39
2022/03/16 09:12:17;;;;;;;;;;;21.60;31.20;;;;;;483589;246;1275;-39
2022/03/16 09:14:17;;;;;;;;;;;21.60;31.20;;;;;;483431;246;2187;-39
2022/03/16 09:16:19;;;;;;;;;;;21.70;31.20;;;;;;483284;246;1238;-39
2022/03/16 09:18:20;;;;;;;;;;;21.60;31.20;;;;;;483444;246;1149;-39
2022/03/16 09:20:21;;;;;;;;;;;21.70;31.30;;;;;;483548;246;1334;-39
2022/03/16 09:22:23;;;;;;;;;;;21.60;31.20;;;;;;483318;246;1174;-39
2022/03/16 09:24:25;;;;;;;;;;;21.70;31.30;;;;;;483454;246;1283;-39
2022/03/16 09:26:26;;;;;;;;;;;21.70;31.30;;;;;;483274;246;2134;-39
2022/03/16 09:28:27;;;;;;;;;;;21.70;31.20;;;;;;483195;246;2322;-39
2022/03/16 09:30:28;;;;;;;;;;;21.70;31.30;;;;;;483277;246;1132;-39
2022/03/16 09:32:32;;;;;;;;;;;21.70;31.30;;;;;;483353;246;1239;-39
2022/03/16 09:34:31;;;;;;;;;;;21.70;31.40;;;;;;483203;246;2200;-39
2022/03/16 09:36:33;;;;;;;;;;;21.70;31.30;;;;;;483382;246;1194;-39
2022/03/16 09:38:34;;;;;;;;;;;21.70;31.30;;;;;;483474;246;1105;-39
2022/03/16 09:40:36;;;;;;;;;;;21.70;31.30;;;;;;483399;246;1109;-39
2022/03/16 09:42:37;;;;;;;;;;;21.70;31.40;;;;;;483460;246;1410;-39
2022/03/16 09:44:38;;;;;;;;;;;21.70;31.30;;;;;;483397;246;1125;-39
2022/03/16 09:46:39;;;;;;;;;;;21.70;31.30;;;;;;483225;246;1316;-39
2022/03/16 09:48:41;;;;;;;;;;;21.70;31.40;;;;;;483352;246;1193;-39
2022/03/16 09:50:42;;;;;;;;;;;21.70;31.30;;;;;;483351;245;1315;-39
2022/03/16 09:52:44;;;;;;;;;;;21.70;31.40;;;;;;483349;246;1216;-39
2022/03/16 09:54:45;;;;;;;;;;;21.70;31.30;;;;;;483410;246;2262;-39
2022/03/16 09:56:47;;;;;;;;;;;21.80;31.40;;;;;;483441;246;1045;-39
2022/03/16 09:58:47;;;;;;;;;;;21.70;31.40;;;;;;483401;246;2206;-39
2022/03/16 10:00:49;;;;;;;;;;;21.70;31.40;;;;;;483378;246;1136;-39
2022/03/16 10:02:51;;;;;;;;;;;21.70;31.40;;;;;;483794;246;1134;-39
2022/03/16 10:04:52;;;;;;;;;;;21.70;31.40;;;;;;483452;246;2246;-39
2022/03/16 10:06:53;;;;;;;;;;;21.80;31.40;;;;;;483327;246;1207;-39
2022/03/16 10:13:33;;;;;;;;;;;21.70;31.50;;;;;;483440;246;2113;-39
2022/03/16 10:15:34;;;;;;;;;;;21.70;31.40;;;;;;483496;246;1102;-39
2022/03/16 10:17:45;;;;;;;;;;;21.70;31.50;;;;;;483297;246;1159;-39
2022/03/16 10:19:48;;;;;;;;;;;21.70;31.50;;;;;;483135;246;1114;-39
2022/03/16 10:21:50;;;;;;;;;;;21.70;31.50;;;;;;482868;246;1888;-39
2022/03/16 10:23:51;;;;;;;;;;;21.80;31.50;;;;;;483059;246;1142;-39
2022/03/16 10:25:52;;;;;;;;;;;21.70;31.50;;;;;;483421;246;1083;-39
2022/03/16 10:27:54;;;;;;;;;;;21.70;31.50;;;;;;483453;246;1198;-39
2022/03/16 10:29:55;;;;;;;;;;;21.70;31.50;;;;;;483489;246;1109;-39
2022/03/16 10:31:57;;;;;;;;;;;21.70;31.50;;;;;;483296;246;1093;-39
2022/03/16 10:33:58;;;;;;;;;;;21.70;31.50;;;;;;483166;246;2109;-39
2022/03/16 10:36:00;;;;;;;;;;;21.70;31.50;;;;;;483155;246;2052;-39
2022/03/16 10:38:00;;;;;;;;;;;21.70;31.50;;;;;;483094;246;2176;-39
2022/03/16 10:47:14;;;;;;;;;;;21.80;31.60;;;;;;472023;245;1325;-39
2022/03/16 10:49:19;;;;;;;;;;;21.80;31.60;;;;;;483407;246;1158;-39
2022/03/16 10:51:18;;;;;;;;;;;21.80;31.70;;;;;;483033;246;2314;-39
2022/03/16 10:53:21;;;;;;;;;;;21.80;31.60;;;;;;483141;246;2196;-39
2022/03/16 10:55:20;;;;;;;;;;;21.80;31.50;;;;;;483006;246;2138;-39
2022/03/16 10:57:22;;;;;;;;;;;21.80;31.60;;;;;;483123;246;1277;-39
2022/03/16 10:59:23;;;;;;;;;;;21.80;31.70;;;;;;483200;246;1069;-39
2022/03/16 11:01:25;;;;;;;;;;;21.80;31.60;;;;;;483313;246;1158;-39
2022/03/16 11:03:26;;;;;;;;;;;21.80;31.60;;;;;;483388;246;2121;-39
2022/03/16 11:05:27;;;;;;;;;;;21.80;31.60;;;;;;483346;246;1113;-39
2022/03/16 11:07:28;;;;;;;;;;;21.80;31.70;;;;;;483222;246;1234;-39
2022/03/16 11:09:30;;;;;;;;;;;21.70;31.70;;;;;;483378;246;1197;-39
2022/03/16 11:13:50;;;;;;;;;;;21.80;31.70;;;;;;483294;246;2125;-39
2022/03/16 11:15:52;;;;;;;;;;;21.80;31.80;;;;;;483348;246;1187;-39
2022/03/16 11:17:53;;;;;;;;;;;21.80;31.70;;;;;;483393;246;1081;-39
2022/03/16 11:19:55;;;;;;;;;;;21.80;31.70;;;;;;483342;246;1223;-39
2022/03/16 11:21:55;;;;;;;;;;;21.80;31.80;;;;;;483328;246;2330;-39
2022/03/16 11:26:16;;;;;;;;;;;21.80;31.80;;;;;;483419;246;1222;-39
2022/03/16 11:28:17;;;;;;;;;;;21.80;31.80;;;;;;483644;246;1082;-39
2022/03/16 11:30:19;;;;;;;;;;;21.80;31.80;;;;;;483411;246;1213;-39
2022/03/16 11:32:20;;;;;;;;;;;21.80;31.80;;;;;;483439;246;1350;-39
2022/03/16 11:34:21;;;;;;;;;;;21.90;31.80;;;;;;483497;246;2125;-39
2022/03/16 11:36:23;;;;;;;;;;;21.80;31.70;;;;;;483315;246;1293;-39
2022/03/16 11:38:24;;;;;;;;;;;21.80;31.70;;;;;;483332;246;1177;-39
2022/03/16 11:40:26;;;;;;;;;;;21.90;31.80;;;;;;483289;246;1098;-39
2022/03/16 11:42:27;;;;;;;;;;;21.80;31.80;;;;;;483485;246;1231;-39
2022/03/16 11:44:29;;;;;;;;;;;21.80;31.80;;;;;;483597;246;1085;-39
2022/03/16 11:46:30;;;;;;;;;;;21.80;31.80;;;;;;483421;246;1349;-39
2022/03/16 11:48:31;;;;;;;;;;;21.80;31.80;;;;;;483702;246;1091;-39
2022/03/16 11:50:32;;;;;;;;;;;21.90;31.80;;;;;;483657;246;1095;-39
2022/03/16 11:52:34;;;;;;;;;;;21.80;31.80;;;;;;483530;246;1593;-39
2022/03/16 11:54:35;;;;;;;;;;;21.80;31.90;;;;;;483595;246;2188;-39
2022/03/16 11:56:36;;;;;;;;;;;21.80;31.80;;;;;;483439;246;1372;-39
2022/03/16 11:58:38;;;;;;;;;;;21.90;31.90;;;;;;483532;246;1086;-39
2022/03/16 12:00:39;;;;;;;;;;;21.90;31.80;;;;;;483507;246;1071;-39
2022/03/16 12:02:41;;;;;;;;;;;21.90;31.80;;;;;;483408;246;1309;-39
2022/03/16 12:04:42;;;;;;;;;;;21.90;31.80;;;;;;483422;246;1087;-39
2022/03/16 12:06:44;;;;;;;;;;;21.90;31.80;;;;;;483434;246;1362;-39
2022/03/16 12:08:46;;;;;;;;;;;21.90;31.80;;;;;;483415;246;1186;-39
2022/03/16 12:10:47;;;;;;;;;;;21.90;31.80;;;;;;483362;246;2354;-39
2022/03/16 12:12:51;;;;;;;;;;;21.90;31.80;;;;;;481845;246;1252;-39